createdAt,value
2022-08-07T03:31:13.315Z,64.00
2022-08-07T03:33:48.589Z,62.60
2022-08-07T03:36:22.408Z,67.80
2022-08-07T03:39:05.523Z,79.50
2022-08-07T03:41:50.695Z,81.00
2022-08-07T03:44:34.224Z,73.00
2022-08-07T03:47:23.164Z,56.40
2022-08-07T03:49:57.639Z,57.00
2022-08-07T06:40:45.925Z,19.50
2022-08-07T06:43:21.560Z,20.00
2022-08-07T06:46:00.813Z,17.50
2022-08-07T06:48:36.397Z,15.00
2022-08-07T06:51:33.208Z,16.00
2022-08-07T06:55:27.693Z,19.80
2022-08-07T06:57:03.115Z,17.40
2022-08-07T07:00:12.198Z,23.75
2022-08-07T07:02:53.805Z,21.50
2022-08-07T07:06:03.580Z,24.60
2022-08-07T07:08:27.034Z,16.00
2022-08-07T07:12:08.692Z,18.00
2022-08-07T07:14:14.723Z,19.00
2022-08-07T07:17:08.049Z,24.20
2022-08-07T07:19:55.149Z,27.40
2022-08-07T07:22:36.031Z,24.20
2022-08-07T07:26:32.288Z,20.60
2022-08-07T07:28:42.326Z,22.50
2022-08-07T07:31:21.799Z,18.00
2022-08-07T07:33:57.122Z,16.40
2022-08-07T07:36:32.743Z,15.40
2022-08-07T07:39:07.517Z,14.00
2022-08-07T07:42:13.114Z,15.00
2022-08-07T07:44:54.268Z,17.75
2022-08-07T07:47:28.723Z,17.75
2022-08-07T07:50:35.611Z,24.25
2022-08-07T07:53:05.213Z,16.40
2022-08-07T07:55:54.945Z,19.40
2022-08-07T07:58:40.500Z,19.20
2022-08-07T08:02:01.707Z,17.75
2022-08-07T08:04:12.197Z,25.00
2022-08-07T08:06:50.720Z,18.00
2022-08-07T08:09:29.239Z,21.40
2022-08-07T08:12:05.990Z,17.00
2022-08-07T08:14:40.719Z,17.60
2022-08-07T08:17:58.243Z,20.00
2022-08-07T08:21:56.943Z,29.00
2022-08-07T08:24:44.950Z,15.00
2022-08-07T08:28:05.431Z,16.80
2022-08-07T08:30:42.844Z,13.60
2022-08-07T08:33:36.336Z,13.50
2022-08-07T08:36:29.559Z,16.00
2022-08-07T08:39:16.930Z,16.60
2022-08-07T08:41:58.667Z,17.00
2022-08-07T08:45:14.051Z,15.00
2022-08-07T08:47:52.557Z,15.75
2022-08-07T08:50:39.453Z,16.00
2022-08-07T08:53:14.496Z,19.33
2022-08-07T08:55:58.604Z,14.00
2022-08-07T08:58:34.129Z,16.00
2022-08-07T09:01:15.962Z,16.00
2022-08-07T09:03:55.392Z,13.00
2022-08-07T09:06:31.493Z,15.00
2022-08-07T09:09:09.718Z,16.50
2022-08-07T09:12:02.733Z,15.25
2022-08-07T09:14:58.535Z,10.00
2022-08-07T09:17:34.121Z,13.40
2022-08-07T09:20:35.652Z,11.80
2022-08-07T09:24:31.218Z,13.00
2022-08-07T09:26:05.436Z,14.60
2022-08-07T09:30:01.829Z,13.50
2022-08-07T09:31:38.845Z,10.75
2022-08-07T09:34:13.415Z,14.00
2022-08-07T09:36:50.021Z,14.60
2022-08-07T09:39:54.050Z,10.00
2022-08-07T09:42:22.930Z,11.00
2022-08-07T09:47:24.038Z,11.40
2022-08-07T09:48:01.269Z,13.00
2022-08-07T09:50:39.997Z,12.60
2022-08-07T09:53:18.333Z,12.00
2022-08-07T09:56:04.011Z,10.00
2022-08-07T09:58:42.204Z,11.00
2022-08-07T10:01:51.375Z,11.00
2022-08-07T10:04:28.092Z,13.00
2022-08-07T10:07:24.568Z,11.00
2022-08-07T10:10:21.902Z,13.50
2022-08-07T10:12:57.792Z,13.33
2022-08-07T10:15:43.961Z,11.00
2022-08-07T10:18:18.779Z,12.40
2022-08-07T10:20:54.334Z,14.40
2022-08-07T10:24:06.855Z,12.50
2022-08-07T10:26:24.895Z,13.00
2022-08-07T10:29:20.687Z,13.00
2022-08-07T10:31:55.818Z,13.75
2022-08-07T10:34:31.928Z,9.00
2022-08-07T10:37:08.636Z,11.60
2022-08-07T10:40:03.493Z,10.00
2022-08-07T10:42:42.865Z,12.40
2022-08-07T10:45:18.649Z,11.75
2022-08-07T10:47:59.910Z,12.00
2022-08-07T10:50:38.436Z,12.50
2022-08-07T10:53:12.966Z,10.00
2022-08-07T10:55:56.727Z,11.60
2022-08-07T10:58:40.298Z,15.40
2022-08-07T11:01:15.383Z,13.00
2022-08-07T11:04:05.407Z,9.80
2022-08-07T11:06:49.533Z,15.00
2022-08-07T11:10:08.830Z,15.80
2022-08-07T11:12:38.953Z,9.50
2022-08-07T11:15:17.841Z,14.50
2022-08-07T11:17:54.178Z,11.00
2022-08-07T11:20:28.756Z,12.50
2022-08-07T11:23:07.294Z,11.00
2022-08-07T11:25:50.131Z,11.00
2022-08-07T11:28:24.913Z,10.40
2022-08-07T11:30:59.136Z,9.00
2022-08-07T11:33:58.782Z,16.20
2022-08-07T11:36:30.758Z,13.80
2022-08-07T11:39:07.054Z,11.40
2022-08-07T11:42:01.571Z,11.00
2022-08-07T11:44:57.854Z,17.00
2022-08-07T11:47:38.654Z,11.00
2022-08-07T11:50:32.866Z,15.00
2022-08-07T11:53:11.057Z,10.75
2022-08-07T11:56:25.317Z,11.00
2022-08-07T11:58:40.161Z,11.00
2022-08-07T12:01:20.407Z,12.67
2022-08-07T12:03:56.272Z,11.00
2022-08-07T12:06:37.482Z,16.20
2022-08-07T12:09:23.912Z,10.50
2022-08-07T12:12:09.639Z,14.00
2022-08-07T12:15:08.242Z,16.80
2022-08-07T12:17:55.958Z,16.40
2022-08-07T12:20:34.192Z,15.25
2022-08-07T12:23:14.498Z,13.50
2022-08-07T12:26:22.163Z,14.50
2022-08-07T12:29:00.954Z,13.00
2022-08-07T12:31:53.198Z,14.60
2022-08-07T12:34:29.693Z,11.40
2022-08-07T12:37:16.218Z,16.00
2022-08-07T12:39:51.629Z,13.25
2022-08-07T12:42:28.584Z,12.50
2022-08-07T12:45:06.717Z,15.50
2022-08-07T12:47:44.063Z,18.75
2022-08-07T12:50:34.428Z,15.00
2022-08-07T12:53:18.769Z,11.40
2022-08-07T12:56:02.132Z,14.00
2022-08-07T12:58:39.592Z,12.60
2022-08-07T13:01:15.323Z,13.50
2022-08-07T13:04:02.408Z,11.75
2022-08-07T13:07:00.229Z,11.00
2022-08-07T13:10:20.904Z,12.75
2022-08-07T13:12:45.039Z,10.50
2022-08-07T13:15:29.749Z,14.00
2022-08-07T13:18:07.532Z,14.40
2022-08-07T13:20:44.747Z,14.00
2022-08-07T13:24:01.708Z,15.40
2022-08-07T13:26:16.070Z,10.00
2022-08-07T13:28:56.565Z,8.60
2022-08-07T13:31:46.016Z,10.20
2022-08-07T13:34:35.483Z,12.40
2022-08-07T13:37:20.071Z,10.00
2022-08-07T13:40:36.736Z,11.60
2022-08-07T13:42:51.114Z,10.00
2022-08-07T13:46:11.182Z,11.75
2022-08-07T13:48:27.399Z,10.60
2022-08-07T13:51:27.166Z,9.20
2022-08-07T13:54:03.318Z,10.00
2022-08-07T13:56:51.595Z,11.00
2022-08-07T13:59:48.377Z,10.20
2022-08-07T14:02:39.514Z,11.40
2022-08-07T14:05:37.578Z,13.00
2022-08-07T14:08:12.474Z,8.00
2022-08-07T14:11:14.693Z,11.00
2022-08-07T14:13:45.167Z,9.40
2022-08-07T14:16:26.846Z,13.00
2022-08-07T14:19:06.102Z,10.20
2022-08-07T14:22:01.396Z,10.60
2022-08-07T14:24:35.345Z,10.50
2022-08-07T14:28:11.801Z,10.00
2022-08-07T14:33:00.873Z,10.00
2022-08-07T14:35:43.448Z,8.50
2022-08-07T14:38:38.796Z,14.50
2022-08-07T14:41:34.009Z,11.80
2022-08-07T14:44:34.398Z,14.00
2022-08-07T14:47:16.410Z,14.00
2022-08-07T14:52:45.262Z,14.50
2022-08-07T14:55:20.769Z,12.60
2022-08-07T15:00:51.970Z,16.20
2022-08-07T15:03:52.303Z,17.40
2022-08-07T15:06:23.299Z,13.00
2022-08-07T15:09:57.760Z,12.50
2022-08-07T15:12:26.058Z,18.25
2022-08-07T15:15:21.320Z,12.00
2022-08-07T15:17:56.824Z,10.00
2022-08-07T15:25:02.062Z,15.00
2022-08-07T15:26:23.063Z,17.25
2022-08-07T15:30:09.145Z,12.00
2022-08-07T15:32:16.982Z,11.60
2022-08-07T15:35:11.033Z,16.33
2022-08-07T15:38:17.236Z,23.40
2022-08-07T15:41:00.157Z,16.40
2022-08-07T15:43:55.817Z,19.60
2022-08-07T15:46:34.309Z,27.00
2022-08-07T15:52:20.513Z,18.00
2022-08-07T15:54:57.672Z,20.40
2022-08-07T15:57:40.251Z,20.40
2022-08-07T16:00:33.462Z,21.00
2022-08-07T16:03:20.569Z,20.25
2022-08-07T16:05:56.742Z,17.80
2022-08-07T16:08:38.740Z,21.60
2022-08-07T16:11:26.781Z,26.40
2022-08-07T16:14:03.426Z,19.75
2022-08-07T16:16:43.036Z,20.40
2022-08-07T16:19:41.927Z,23.40
2022-08-07T16:22:33.891Z,18.80
2022-08-07T16:25:10.604Z,25.20
2022-08-07T16:28:14.217Z,18.40
2022-08-07T16:31:57.348Z,19.00
2022-08-07T16:34:33.345Z,23.60
2022-08-07T16:38:06.924Z,18.00
2022-08-07T16:40:05.151Z,22.40
2022-08-07T16:42:41.028Z,16.40
2022-08-07T16:46:41.004Z,21.80
2022-08-07T16:48:10.206Z,28.60
2022-08-07T16:51:20.760Z,24.60
2022-08-07T16:54:01.509Z,19.40
2022-08-07T16:56:37.515Z,18.80
2022-08-07T16:59:14.500Z,27.00
2022-08-07T17:01:51.846Z,20.40
2022-08-07T17:04:50.866Z,26.25
2022-08-07T17:07:55.507Z,27.80
2022-08-07T17:10:33.632Z,29.80
2022-08-07T17:13:08.950Z,23.00
2022-08-07T17:15:50.719Z,21.50
2022-08-07T17:18:46.085Z,20.50
2022-08-07T17:21:22.766Z,20.00
2022-08-07T17:23:57.583Z,20.60
2022-08-07T17:26:35.872Z,22.40
2022-08-07T17:30:15.893Z,25.00
2022-08-07T17:32:30.784Z,24.60
2022-08-07T17:35:51.816Z,20.00
2022-08-07T17:38:11.665Z,29.80
2022-08-07T17:40:52.149Z,23.60
2022-08-07T17:44:02.713Z,26.40
2022-08-07T17:46:21.983Z,22.40
2022-08-07T17:49:30.133Z,23.40
2022-08-07T17:52:04.703Z,25.00
2022-08-07T17:54:39.797Z,23.00
2022-08-07T17:57:31.986Z,28.00
2022-08-07T18:00:33.003Z,31.25
2022-08-07T18:03:09.606Z,23.00
2022-08-07T18:06:01.283Z,27.75
2022-08-07T18:08:45.399Z,24.60
2022-08-07T18:12:16.184Z,33.40
2022-08-07T18:14:25.895Z,24.60
2022-08-07T18:17:00.013Z,25.50
2022-08-07T18:21:12.641Z,22.00
2022-08-07T18:22:28.360Z,21.75
2022-08-07T18:25:24.143Z,25.20
2022-08-07T18:27:57.712Z,27.40
2022-08-07T18:30:36.750Z,25.80
2022-08-07T18:33:12.831Z,28.60
2022-08-07T18:35:53.716Z,29.40
2022-08-07T18:38:58.724Z,31.00
2022-08-07T18:41:44.924Z,26.75
2022-08-07T18:44:20.285Z,32.20
2022-08-07T18:46:58.225Z,25.60
2022-08-07T18:50:30.926Z,30.50
2022-08-07T18:52:53.847Z,27.60
2022-08-07T18:55:42.700Z,21.00
2022-08-07T18:58:25.945Z,21.25
2022-08-07T19:01:03.316Z,23.00
2022-08-07T19:03:41.173Z,24.40
2022-08-07T19:06:16.931Z,25.20
2022-08-07T19:08:52.334Z,26.75
2022-08-07T19:11:36.285Z,21.50
2022-08-07T19:14:17.101Z,22.40
2022-08-07T19:17:09.371Z,30.25
2022-08-07T19:19:46.224Z,21.40
2022-08-07T19:22:30.830Z,30.75
2022-08-07T19:25:07.617Z,30.00
2022-08-07T19:28:57.600Z,27.00
2022-08-07T19:31:05.543Z,30.60
2022-08-07T19:33:34.620Z,23.80
2022-08-07T19:36:09.727Z,28.20
2022-08-07T19:38:52.984Z,29.20
2022-08-07T19:41:44.038Z,27.50
2022-08-07T19:44:21.666Z,20.60
2022-08-07T19:46:58.131Z,27.60
2022-08-07T19:49:58.273Z,28.75
2022-08-07T19:52:27.689Z,33.00
2022-08-07T19:55:03.426Z,31.40
2022-08-07T19:58:02.036Z,27.80
2022-08-07T20:00:34.481Z,26.50
2022-08-07T20:03:35.379Z,32.80
2022-08-07T20:06:05.048Z,31.60
2022-08-07T20:08:42.218Z,29.80
2022-08-07T20:12:01.350Z,28.40
2022-08-07T20:14:23.093Z,31.50
2022-08-07T20:17:06.404Z,28.20
2022-08-07T20:19:48.056Z,29.40
2022-08-07T20:22:34.366Z,30.25
2022-08-07T20:25:19.418Z,31.40
2022-08-07T20:27:58.541Z,27.00
2022-08-07T20:30:34.167Z,29.00
2022-08-07T20:33:36.731Z,30.00
2022-08-07T20:36:03.998Z,31.00
2022-08-07T20:38:53.346Z,26.25
2022-08-07T20:41:34.312Z,27.75
2022-08-07T20:44:13.641Z,21.40
2022-08-07T20:47:05.877Z,26.00
2022-08-07T20:49:59.820Z,30.40
2022-08-07T20:52:52.006Z,29.75
2022-08-07T20:55:26.548Z,23.00
2022-08-07T20:58:03.530Z,33.75
2022-08-07T21:00:45.202Z,21.50
2022-08-07T21:03:25.520Z,26.00
2022-08-07T21:06:01.650Z,21.00
2022-08-07T21:08:39.050Z,24.60
2022-08-07T21:11:14.888Z,28.50
2022-08-07T21:14:29.505Z,24.00
2022-08-07T21:16:56.203Z,24.00
2022-08-07T21:19:32.214Z,29.40
2022-08-07T21:22:25.525Z,23.50
2022-08-07T21:25:04.875Z,27.60
2022-08-07T21:27:47.789Z,27.20
2022-08-07T21:30:30.219Z,26.00
2022-08-07T21:33:05.426Z,29.00
2022-08-07T21:36:05.792Z,22.00
2022-08-07T21:38:37.811Z,23.50
2022-08-07T21:41:18.288Z,25.00
2022-08-07T21:43:56.698Z,30.80
2022-08-07T21:46:32.373Z,21.00
2022-08-07T21:50:02.220Z,25.00
2022-08-07T21:52:37.054Z,32.60
2022-08-07T21:55:12.098Z,26.80
2022-08-07T21:57:52.248Z,35.00
2022-08-07T22:00:27.826Z,28.20
2022-08-07T22:03:06.370Z,33.40
2022-08-07T22:05:44.430Z,37.40
2022-08-07T22:08:24.736Z,41.00
2022-08-07T22:10:59.938Z,36.00
2022-08-07T22:13:51.406Z,41.40
2022-08-07T22:16:39.514Z,37.40
2022-08-07T22:19:23.472Z,30.40
2022-08-07T22:22:17.595Z,37.00
2022-08-07T22:24:57.943Z,27.60
2022-08-07T22:28:08.171Z,34.80
2022-08-07T22:30:28.481Z,35.00
2022-08-07T22:33:03.484Z,42.50
2022-08-07T22:35:40.603Z,39.00
2022-08-07T22:38:20.366Z,36.40
2022-08-07T22:41:00.033Z,44.50
2022-08-07T22:43:38.962Z,42.40
2022-08-07T22:47:02.099Z,31.60
2022-08-07T22:49:15.808Z,45.75
2022-08-07T22:51:52.174Z,46.20
